• Join FlightAware (Why Join?)
  • Login
  • US Flag 
07:53PM EDT


 

Airport Tracker/Info


-or-


 

Live Flight TrackerFlight Track Log ✈ AWI3780 ✈ 30-Apr-2013 ✈ KBTV - KPHL

Flight Track Log - Related Links

Times and Time Zones

All times are in EDT time to prevent confusion due to time zone crossing. See the AWI3780 flight status page for this flight to view local times or setup timezone preferences in your user account.

Time Position Orientation Groundspeed Altitude Reporting Facility
EDT Latitude Longitude Course Direction KTS MPH feet Rate Location/Type
03:57PM 44.1782 -73.2554 196° South  Level FlightAware Approximate
03:58PM 44.0823 -73.2938 196° South  Level FlightAware Approximate
03:58PM 44.2525 -73.1994 195° South 273 314 9,200  Level Boston Center
03:59PM 43.9864 -73.3322 196° South  Level FlightAware Approximate
03:59PM 44.1772 -73.2303 196° South 286 329 11,500  Level Boston Center
04:00PM 43.8905 -73.3702 195° South  Level FlightAware Approximate
04:00PM 44.0939 -73.2639 196° South 305 351 14,200  Level Boston Center
04:01PM 43.7941 -73.4058 195° South  Level FlightAware Approximate
04:01PM 44.0103 -73.2975 196° South 313 360 16,300  Level Boston Center
04:02PM 43.6977 -73.4414 195° South  Level FlightAware Approximate
04:02PM 43.9183 -73.3364 197° South 326 375 18,000  Level Boston Center
04:03PM 43.8261 -73.3753 197° South 343 395 19,600 1,500 Climbing Boston Center
04:04PM 43.7281 -73.4142 196° South 352 405 21,100 1,440 Climbing Boston Center
04:05PM 43.6400 -73.4469 195° South 364 419 22,500 1,380 Climbing Boston Center
04:06PM 43.5539 -73.5286 215° Southwest 364 419 23,900 1,260 Climbing Boston Center
04:07PM 43.4678 -73.6158 216° Southwest 376 433 25,100 1,020 Climbing Boston Center
04:08PM 43.3811 -73.7056 217° Southwest 388 447 26,000 420 Climbing Boston Center
04:09PM 43.2861 -73.8119 219° Southwest 402 463 26,000  Level Boston Center
04:10PM 43.1975 -73.9011 216° Southwest 402 463 26,000  Level Boston Center
04:11PM 43.1131 -73.9931 218° Southwest 397 457 26,000  Level Boston Center
04:12PM 43.0306 -74.0819 218° Southwest 397 457 26,000  Level Boston Center
04:13PM 42.9481 -74.1675 217° Southwest 397 457 26,000  Level Boston Center
04:14PM 42.8633 -74.2531 217° Southwest 397 457 26,000  Level Boston Center
04:15PM 42.7806 -74.3383 217° Southwest 392 451 26,000 -180 Level Boston Center
04:16PM 42.7000 -74.4233 218° Southwest 382 440 25,700 -900 Descending Boston Center
04:17PM 42.6169 -74.5111 218° Southwest 382 440 24,200 -1,500 Descending Boston Center
04:18PM 42.5319 -74.6011 218° Southwest 382 440 22,700 -1,140 Descending Boston Center
04:19PM 42.4469 -74.6883 217° Southwest 387 445 22,000 -360 Descending Boston Center
04:20PM 42.3639 -74.7725 217° Southwest 381 438 22,000  Level Boston Center
04:21PM 42.2389 -74.8967 216° Southwest 357 411 22,000  Level New York Center
04:22PM 42.1461 -74.9858 215° Southwest 362 417 22,000 -720 Level New York Center
04:23PM 42.0564 -75.0556 210° Southwest 373 429 20,600 -1,440 Descending New York Center
04:24PM 41.9703 -75.1281 212° Southwest 378 435 19,100 -840 Descending New York Center
04:25PM 41.8953 -75.1928 213° Southwest 373 429 19,000 -480 Descending New York Center
04:26PM 41.8114 -75.2597 211° Southwest 368 423 18,200 -1,140 Descending New York Center
04:27PM 41.7211 -75.3342 212° Southwest 362 417 16,700 -1,560 Descending New York Center
04:28PM 41.6394 -75.3978 210° Southwest 352 405 15,100 -1,620 Descending New York Center
04:29PM 41.5600 -75.4617 211° Southwest 346 398 13,600 -1,560 Descending New York Center
04:30PM 41.4911 -75.5178 211° Southwest 346 398 12,100 -840 Descending New York Center
04:31PM 41.4158 -75.5789 211° Southwest 328 377 12,000 -60 Descending New York Center
04:32PM 41.3342 -75.6394 209° Southwest 323 372 12,000  Level New York Center
04:33PM 41.2572 -75.6892 206° Southwest 323 372 12,000  Level New York Center
04:34PM 41.1717 -75.6883 180° South 304 350 12,000  Level New York Center
04:35PM 41.0947 -75.6883 180° South 313 360 12,000  Level New York Center
04:36PM 40.9967 -75.6894 180° South 313 360 12,000  Level New York Center
04:37PM 40.9072 -75.6883 179° South 319 367 12,000 -540 Level New York Center
04:38PM 40.8281 -75.6881 180° South 324 373 11,000 -1,020 Descending New York Center
04:39PM 40.7342 -75.6869 179° South 324 373 10,000 -540 Descending New York Center
04:40PM 40.6508 -75.6864 180° South 310 357 10,000  Level New York Center
04:41PM 40.5686 -75.6614 167° South 305 351 10,000 -180 Level New York Center
04:42PM 40.5264 -75.5764 123° Southeast 291 335 9,700 -540 Descending New York Center
04:43PM 40.4778 -75.4858 125° Southeast 286 329 9,000 -360 Descending New York Center
04:44PM 40.4150 -75.4378 150° Southeast 255 293 9,000 -720 Level New York Center
04:45PM 40.3375 -75.4489 186° South 269 310 7,700 -1,680 Descending New York Center
04:46PM 40.2697 -75.4281 167° South 274 315 5,700 -1,980 Descending New York Center
04:47PM 40.2019 -75.3964 160° South 274 315 3,800 -1,560 Descending New York Center
04:48PM 40.1347 -75.3619 159° South 253 291 2,600 -660 Descending New York Center
04:49PM 40.0897 -75.3400 160° South 208 239 2,500 -60 Descending New York Center
04:50PM 40.0500 -75.3167 156° South 174 200 2,500  Level Philadelphia TRACON
04:51PM 40.0167 -75.3000 159° South 174 200 2,500  Level Philadelphia TRACON